createdAt,value
2019-03-18T00:00:13.213Z,99.90
2019-03-18T00:02:41.442Z,99.90
2019-03-18T00:05:09.670Z,99.90
2019-03-18T00:07:37.911Z,99.90
2019-03-18T00:10:07.684Z,99.90
2019-03-18T00:12:35.925Z,99.90
2019-03-18T00:15:06.085Z,99.90
2019-03-18T00:17:34.423Z,99.90
2019-03-18T00:20:02.644Z,99.90
2019-03-18T00:22:30.892Z,99.90
2019-03-18T00:24:59.099Z,99.90
2019-03-18T00:27:27.356Z,99.90
2019-03-18T00:29:55.612Z,99.90
2019-03-18T00:32:23.829Z,99.90
2019-03-18T00:34:52.085Z,99.90
2019-03-18T00:37:20.321Z,99.90
2019-03-18T00:39:48.570Z,99.90
2019-03-18T00:42:16.814Z,99.90
2019-03-18T00:44:45.037Z,99.90
2019-03-18T00:47:13.282Z,99.90
2019-03-18T00:49:41.514Z,99.90
2019-03-18T00:52:09.765Z,99.90
2019-03-18T00:54:37.988Z,99.90
2019-03-18T00:57:06.215Z,99.90
2019-03-18T00:59:34.442Z,99.90
2019-03-18T01:02:02.672Z,99.90
2019-03-18T01:04:30.915Z,99.90
2019-03-18T01:06:59.172Z,99.90
2019-03-18T01:09:27.418Z,99.90
2019-03-18T01:11:55.646Z,99.90
2019-03-18T01:14:23.893Z,99.90
2019-03-18T01:16:52.116Z,99.90
2019-03-18T01:19:20.373Z,99.90
2019-03-18T01:21:48.591Z,99.90
2019-03-18T01:24:16.811Z,99.90
2019-03-18T01:26:45.049Z,99.90
2019-03-18T01:29:13.286Z,99.90
2019-03-18T01:31:41.537Z,99.90
2019-03-18T01:34:09.770Z,99.90
2019-03-18T01:36:38.009Z,99.90
2019-03-18T01:39:06.478Z,99.90
2019-03-18T01:41:34.714Z,99.90
2019-03-18T01:44:02.945Z,99.90
2019-03-18T01:46:31.195Z,99.90
2019-03-18T01:48:59.449Z,99.90
2019-03-18T01:51:27.693Z,99.90
2019-03-18T01:53:55.916Z,99.90
2019-03-18T01:56:24.161Z,99.90
2019-03-18T01:58:52.408Z,99.90
2019-03-18T02:01:20.647Z,99.90
2019-03-18T02:03:48.913Z,99.90
2019-03-18T02:06:17.224Z,99.90
2019-03-18T02:08:45.427Z,99.90
2019-03-18T02:11:13.678Z,99.90
2019-03-18T02:13:41.968Z,99.90
2019-03-18T02:16:10.225Z,99.90
2019-03-18T02:18:38.473Z,99.90
2019-03-18T02:21:06.730Z,99.90
2019-03-18T02:23:34.969Z,99.90
2019-03-18T02:26:03.249Z,99.90
2019-03-18T02:28:31.468Z,99.90
2019-03-18T02:30:59.717Z,99.90
2019-03-18T02:33:27.951Z,99.90
2019-03-18T02:35:56.176Z,99.90
2019-03-18T02:38:24.423Z,99.90
2019-03-18T02:40:52.802Z,99.90
2019-03-18T02:43:21.058Z,99.90
2019-03-18T02:45:49.281Z,99.90
2019-03-18T02:48:17.541Z,99.90
2019-03-18T02:50:45.762Z,99.90
2019-03-18T02:53:13.995Z,99.90
2019-03-18T02:55:42.241Z,99.90
2019-03-18T02:58:10.468Z,99.90
2019-03-18T03:00:38.704Z,99.90
2019-03-18T03:03:06.952Z,99.90
2019-03-18T03:05:35.166Z,99.90
2019-03-18T03:08:03.412Z,99.90
2019-03-18T03:10:31.675Z,99.90
2019-03-18T03:12:59.928Z,99.90
2019-03-18T03:15:28.216Z,99.90
2019-03-18T03:17:56.428Z,99.90
2019-03-18T03:20:24.697Z,99.90
2019-03-18T03:22:52.971Z,99.90
2019-03-18T03:25:24.701Z,99.90
2019-03-18T03:27:51.170Z,99.90
2019-03-18T03:30:19.404Z,99.90
2019-03-18T03:32:47.630Z,99.90
2019-03-18T03:35:15.865Z,99.90
2019-03-18T03:37:44.100Z,99.90
2019-03-18T03:40:12.407Z,99.90
2019-03-18T03:42:40.652Z,99.90
2019-03-18T03:45:13.517Z,99.90
2019-03-18T03:47:41.750Z,99.90
2019-03-18T03:50:14.032Z,99.90
2019-03-18T03:52:42.248Z,99.90
2019-03-18T03:55:11.530Z,99.90
2019-03-18T03:57:39.785Z,99.90
2019-03-18T04:00:13.075Z,99.90
2019-03-18T04:02:41.380Z,99.90
2019-03-18T04:05:09.643Z,99.90
2019-03-18T04:07:37.997Z,99.90
2019-03-18T04:10:08.968Z,99.90
2019-03-18T04:12:37.194Z,99.90
2019-03-18T04:15:12.829Z,99.90
2019-03-18T04:17:41.073Z,99.90
2019-03-18T04:20:11.790Z,99.90
2019-03-18T04:22:40.065Z,99.90
2019-03-18T04:25:08.660Z,99.90
2019-03-18T04:27:36.904Z,99.90
2019-03-18T04:30:10.918Z,99.90
2019-03-18T04:32:39.139Z,99.90
2019-03-18T04:35:07.393Z,99.90
2019-03-18T04:37:35.617Z,99.90
2019-03-18T04:40:04.084Z,99.90
2019-03-18T04:42:32.316Z,99.90
2019-03-18T04:45:00.548Z,99.90
2019-03-18T04:47:28.772Z,99.90
2019-03-18T04:49:57.021Z,99.90
2019-03-18T04:52:25.234Z,99.90
2019-03-18T04:54:53.504Z,99.90
2019-03-18T04:57:21.738Z,99.90
2019-03-18T04:59:49.956Z,99.90
2019-03-18T05:02:18.197Z,99.90
2019-03-18T05:04:46.414Z,99.90
2019-03-18T05:07:14.651Z,99.90
2019-03-18T05:09:42.877Z,99.90
2019-03-18T05:12:11.136Z,99.90
2019-03-18T05:14:39.333Z,99.90
2019-03-18T05:17:07.577Z,99.90
2019-03-18T05:19:35.794Z,99.90
2019-03-18T05:22:04.028Z,99.90
2019-03-18T05:24:32.277Z,99.90
2019-03-18T05:27:00.488Z,99.90
2019-03-18T05:29:28.744Z,99.90
2019-03-18T05:31:56.970Z,99.90
2019-03-18T05:34:25.235Z,99.90
2019-03-18T05:36:53.447Z,99.90
2019-03-18T05:39:21.660Z,99.90
2019-03-18T05:41:49.927Z,99.90
2019-03-18T05:44:18.153Z,99.90
2019-03-18T05:46:46.382Z,99.90
2019-03-18T05:49:14.627Z,99.90
2019-03-18T05:51:42.937Z,99.90
2019-03-18T05:54:11.153Z,99.90
2019-03-18T05:56:39.397Z,99.90
2019-03-18T05:59:07.630Z,99.90
2019-03-18T06:01:35.893Z,99.90
2019-03-18T06:04:04.130Z,99.90
2019-03-18T06:06:32.361Z,99.90
2019-03-18T06:09:00.612Z,99.90
2019-03-18T06:11:28.862Z,99.90
2019-03-18T06:13:57.085Z,99.90
2019-03-18T06:16:25.333Z,99.90
2019-03-18T06:18:53.554Z,99.90
2019-03-18T06:21:21.798Z,99.90
2019-03-18T06:23:50.020Z,99.90
2019-03-18T06:26:18.277Z,99.90
2019-03-18T06:28:46.490Z,99.90
2019-03-18T06:31:14.741Z,99.90
2019-03-18T06:33:43.025Z,99.90
2019-03-18T06:36:11.291Z,99.90
2019-03-18T06:38:39.536Z,99.90
2019-03-18T06:41:07.763Z,99.90
2019-03-18T06:43:36.071Z,99.90
2019-03-18T06:46:04.320Z,99.90
2019-03-18T06:48:32.556Z,99.90
2019-03-18T06:51:00.803Z,99.90
2019-03-18T06:53:29.039Z,99.90
2019-03-18T06:55:57.276Z,99.90
2019-03-18T06:58:25.517Z,99.90
2019-03-18T07:00:53.741Z,99.90
2019-03-18T07:03:21.974Z,99.90
2019-03-18T07:05:50.283Z,99.90
2019-03-18T07:08:18.509Z,99.90
2019-03-18T07:10:46.752Z,99.90
2019-03-18T07:13:14.983Z,99.90
2019-03-18T07:15:43.198Z,99.90
2019-03-18T07:18:18.302Z,99.90
2019-03-18T07:20:41.388Z,99.90
2019-03-18T07:23:09.629Z,99.90
2019-03-18T07:25:37.852Z,99.90
2019-03-18T07:28:06.098Z,99.90
2019-03-18T07:30:34.367Z,99.90
2019-03-18T07:33:02.584Z,99.90
2019-03-18T07:35:30.832Z,99.90
2019-03-18T07:37:59.073Z,99.90
2019-03-18T07:40:27.316Z,99.90
2019-03-18T07:42:55.550Z,99.90
2019-03-18T07:45:23.780Z,99.90
2019-03-18T07:47:52.020Z,99.90
2019-03-18T07:50:20.244Z,99.90
2019-03-18T07:52:48.492Z,99.90
2019-03-18T07:55:16.731Z,99.90
2019-03-18T07:57:44.958Z,99.90
2019-03-18T08:00:15.210Z,99.90
2019-03-18T08:02:43.470Z,99.90
2019-03-18T08:05:11.697Z,99.90
2019-03-18T08:07:39.906Z,99.90
2019-03-18T08:10:10.189Z,99.90
2019-03-18T08:12:38.430Z,99.90
2019-03-18T08:15:08.617Z,99.90
2019-03-18T08:17:36.833Z,99.90
2019-03-18T08:20:08.180Z,99.90
2019-03-18T08:22:36.403Z,99.90
2019-03-18T08:25:06.092Z,99.90
2019-03-18T08:27:34.316Z,99.90
2019-03-18T08:30:02.936Z,99.90
2019-03-18T08:32:31.172Z,99.90
2019-03-18T08:34:59.468Z,99.90
2019-03-18T08:37:27.698Z,99.90
2019-03-18T08:39:55.946Z,99.90
2019-03-18T08:42:24.187Z,99.90
2019-03-18T08:44:52.421Z,99.90
2019-03-18T08:47:20.655Z,99.90
2019-03-18T08:49:48.897Z,99.90
2019-03-18T08:52:17.129Z,99.90
2019-03-18T08:54:45.356Z,99.90
2019-03-18T08:57:13.596Z,99.90
2019-03-18T08:59:41.835Z,99.90
2019-03-18T09:02:10.053Z,99.90
2019-03-18T09:04:38.296Z,99.90
2019-03-18T09:07:06.547Z,99.90
2019-03-18T09:09:34.772Z,99.90
2019-03-18T09:12:03.022Z,99.90
2019-03-18T09:14:31.288Z,99.90
2019-03-18T09:16:59.505Z,99.90
2019-03-18T09:19:27.748Z,99.90
2019-03-18T09:21:55.967Z,99.90
2019-03-18T09:24:24.208Z,99.90
2019-03-18T09:27:02.021Z,99.90
2019-03-18T09:29:22.399Z,99.90
2019-03-18T09:31:50.682Z,99.90
2019-03-18T09:34:18.895Z,99.90
2019-03-18T09:36:47.120Z,99.90
2019-03-18T09:39:15.373Z,99.90
2019-03-18T09:41:43.592Z,99.90
2019-03-18T09:44:11.823Z,99.90
2019-03-18T09:46:40.042Z,99.90
2019-03-18T09:49:20.740Z,99.90
2019-03-18T09:51:38.269Z,99.90
2019-03-18T09:54:06.491Z,99.90
2019-03-18T09:56:34.741Z,99.90
2019-03-18T09:59:02.976Z,99.90
2019-03-18T10:01:31.218Z,99.90
2019-03-18T10:03:59.458Z,99.90
2019-03-18T10:06:27.682Z,99.90
2019-03-18T10:08:55.901Z,99.90
2019-03-18T10:11:24.155Z,99.90
2019-03-18T10:13:52.410Z,99.90
2019-03-18T10:16:20.635Z,99.90
2019-03-18T10:18:48.884Z,99.90
2019-03-18T10:21:17.112Z,98.20
2019-03-18T10:23:45.368Z,96.80
2019-03-18T10:26:13.592Z,93.60
2019-03-18T10:28:41.840Z,96.20
2019-03-18T10:31:10.081Z,91.20
2019-03-18T10:33:57.739Z,88.60
2019-03-18T10:36:25.997Z,84.40
2019-03-18T10:38:54.217Z,88.90
2019-03-18T10:41:22.451Z,91.40
2019-03-18T10:43:50.707Z,92.20
2019-03-18T10:46:18.965Z,93.10
2019-03-18T10:48:47.214Z,92.20
2019-03-18T10:51:15.435Z,87.00
2019-03-18T10:53:44.690Z,82.70
2019-03-18T10:56:13.166Z,80.70
2019-03-18T10:58:41.413Z,80.90
2019-03-18T11:01:09.631Z,81.20
2019-03-18T11:03:39.033Z,76.70
2019-03-18T11:06:07.479Z,80.00
2019-03-18T11:08:35.718Z,65.50
2019-03-18T11:11:03.959Z,68.60
2019-03-18T11:13:32.204Z,70.50
2019-03-18T11:16:00.429Z,73.60
2019-03-18T11:18:28.683Z,71.80
2019-03-18T11:20:56.927Z,75.60
2019-03-18T11:23:25.314Z,68.40
2019-03-18T11:25:53.712Z,68.50
2019-03-18T11:28:21.946Z,63.60
2019-03-18T11:30:50.203Z,65.60
2019-03-18T11:33:18.446Z,69.10
2019-03-18T11:35:46.705Z,71.40
2019-03-18T11:38:15.009Z,73.30
2019-03-18T11:40:43.252Z,78.90
2019-03-18T11:43:11.480Z,78.50
2019-03-18T11:45:39.731Z,82.50
2019-03-18T11:48:07.957Z,87.30
2019-03-18T11:50:36.193Z,83.90
2019-03-18T11:53:13.662Z,82.10
2019-03-18T11:55:34.391Z,81.20
2019-03-18T11:58:02.638Z,83.70
2019-03-18T12:00:30.840Z,84.40
2019-03-18T12:02:59.088Z,87.10
2019-03-18T12:05:27.980Z,82.40
2019-03-18T12:07:56.229Z,80.30
2019-03-18T12:10:25.945Z,79.40
2019-03-18T12:12:54.559Z,81.70
2019-03-18T12:15:25.212Z,81.10
2019-03-18T12:17:53.483Z,73.30
2019-03-18T12:20:24.949Z,55.90
2019-03-18T12:22:51.726Z,58.50
2019-03-18T12:25:19.983Z,60.00
2019-03-18T12:27:48.214Z,67.60
2019-03-18T12:30:21.239Z,67.40
2019-03-18T12:32:49.494Z,71.80
2019-03-18T12:35:17.714Z,77.30
2019-03-18T12:37:45.956Z,83.60
2019-03-18T12:40:15.027Z,84.10
2019-03-18T12:42:43.238Z,79.40
2019-03-18T12:45:13.229Z,73.40
2019-03-18T12:47:41.452Z,77.50
2019-03-18T12:50:15.970Z,73.90
2019-03-18T12:52:44.208Z,74.80
2019-03-18T12:55:12.451Z,73.40
2019-03-18T12:57:40.659Z,78.20
2019-03-18T13:00:14.881Z,77.90
2019-03-18T13:02:43.107Z,81.00
2019-03-18T13:05:11.353Z,81.20
2019-03-18T13:07:39.584Z,79.90
2019-03-18T13:10:13.906Z,75.50
2019-03-18T13:12:42.121Z,72.80
2019-03-18T13:15:13.434Z,73.80
2019-03-18T13:17:43.832Z,59.90
2019-03-18T13:20:14.246Z,61.70
2019-03-18T13:22:42.482Z,65.10
2019-03-18T13:25:11.925Z,64.00
2019-03-18T13:27:40.181Z,70.30
2019-03-18T13:30:19.885Z,74.60
2019-03-18T13:32:48.143Z,71.30
2019-03-18T13:35:16.348Z,69.20
2019-03-18T13:37:44.608Z,55.50
2019-03-18T13:40:14.915Z,41.30
2019-03-18T13:42:43.165Z,38.70
2019-03-18T13:45:15.998Z,39.70
2019-03-18T13:47:44.214Z,39.10
2019-03-18T13:50:14.592Z,42.10
2019-03-18T13:52:42.888Z,46.50
2019-03-18T13:55:11.138Z,54.60
2019-03-18T13:57:39.380Z,56.30
2019-03-18T14:00:11.768Z,61.80
2019-03-18T14:02:40.141Z,65.10
2019-03-18T14:05:08.816Z,64.30
2019-03-18T14:07:37.064Z,70.20
2019-03-18T14:10:13.586Z,65.70
2019-03-18T14:12:41.831Z,69.20
2019-03-18T14:15:16.109Z,70.40
2019-03-18T14:17:44.333Z,77.00
2019-03-18T14:20:14.614Z,83.40
2019-03-18T14:22:42.846Z,80.20
2019-03-18T14:25:11.720Z,84.30
2019-03-18T14:27:39.972Z,89.40
2019-03-18T14:30:22.177Z,90.20
2019-03-18T14:32:50.436Z,91.90
2019-03-18T14:35:24.453Z,94.60
2019-03-18T14:37:52.833Z,97.80
2019-03-18T14:40:25.502Z,99.90
2019-03-18T14:42:53.753Z,99.90
2019-03-18T14:45:25.528Z,99.90
2019-03-18T14:47:53.791Z,99.90
2019-03-18T14:50:22.030Z,99.90
2019-03-18T14:52:50.274Z,99.90
2019-03-18T14:55:18.977Z,99.90
2019-03-18T14:57:47.184Z,99.90
2019-03-18T15:00:18.171Z,99.90
2019-03-18T15:02:46.462Z,99.90
2019-03-18T15:05:15.408Z,99.90
2019-03-18T15:07:43.656Z,99.90
2019-03-18T15:10:13.831Z,99.90
2019-03-18T15:12:42.116Z,99.90
2019-03-18T15:15:12.851Z,99.90
2019-03-18T15:17:41.136Z,99.90
2019-03-18T15:20:12.330Z,99.90
2019-03-18T15:22:40.898Z,99.90
2019-03-18T15:25:15.032Z,99.90
2019-03-18T15:27:43.264Z,99.90
2019-03-18T15:30:16.889Z,99.70
2019-03-18T15:32:45.135Z,98.60
2019-03-18T15:35:13.722Z,98.10
2019-03-18T15:37:41.964Z,97.10
2019-03-18T15:40:18.254Z,97.10
2019-03-18T15:42:45.791Z,99.20
2019-03-18T15:45:16.064Z,99.90
2019-03-18T15:47:44.326Z,99.90
2019-03-18T15:50:14.826Z,99.90
2019-03-18T15:52:43.030Z,99.90
2019-03-18T15:55:11.628Z,99.90
2019-03-18T15:57:39.866Z,99.90
2019-03-18T16:00:16.379Z,99.90
2019-03-18T16:02:44.642Z,99.90
2019-03-18T16:05:12.870Z,99.90
2019-03-18T16:07:41.093Z,99.90
2019-03-18T16:10:17.213Z,99.90
2019-03-18T16:12:45.459Z,99.90
2019-03-18T16:15:15.614Z,99.90
2019-03-18T16:17:43.930Z,99.90
2019-03-18T16:20:17.514Z,99.90
2019-03-18T16:22:45.767Z,99.90
2019-03-18T16:25:13.996Z,99.90
2019-03-18T16:27:42.219Z,99.90
2019-03-18T16:30:21.650Z,99.90
2019-03-18T16:32:49.876Z,99.90
2019-03-18T16:35:18.198Z,99.90
2019-03-18T16:37:46.500Z,99.90
2019-03-18T16:40:21.942Z,99.90
2019-03-18T16:42:50.211Z,99.90
2019-03-18T16:45:19.311Z,99.90
2019-03-18T16:47:47.584Z,99.90
2019-03-18T16:50:27.911Z,99.90
2019-03-18T16:52:56.120Z,99.90
2019-03-18T16:55:24.354Z,99.90
2019-03-18T16:57:52.604Z,99.90
2019-03-18T17:00:23.711Z,99.90
2019-03-18T17:02:51.937Z,99.90
2019-03-18T17:05:20.185Z,99.90
2019-03-18T17:07:48.418Z,99.90
2019-03-18T17:10:16.706Z,99.90
2019-03-18T17:12:44.973Z,99.90
2019-03-18T17:15:14.446Z,99.90
2019-03-18T17:17:42.759Z,99.90
2019-03-18T17:20:12.652Z,99.90
2019-03-18T17:22:48.956Z,99.90
2019-03-18T17:25:14.177Z,99.90
2019-03-18T17:27:42.404Z,99.90
2019-03-18T17:30:18.238Z,99.90
2019-03-18T17:32:46.765Z,99.90
2019-03-18T17:35:14.990Z,99.90
2019-03-18T17:37:43.232Z,99.90
2019-03-18T17:40:14.181Z,99.90
2019-03-18T17:42:42.532Z,99.90
2019-03-18T17:45:12.938Z,99.90
2019-03-18T17:47:41.167Z,99.90
2019-03-18T17:50:12.686Z,99.90
2019-03-18T17:52:40.943Z,99.90
2019-03-18T17:55:09.182Z,99.90
2019-03-18T17:57:37.416Z,99.90
2019-03-18T18:00:08.972Z,99.90
2019-03-18T18:02:37.224Z,99.90
2019-03-18T18:05:06.113Z,99.90
2019-03-18T18:07:34.410Z,99.90
2019-03-18T18:10:02.687Z,99.90
2019-03-18T18:12:30.927Z,99.90
2019-03-18T18:14:59.207Z,99.90
2019-03-18T18:17:27.493Z,99.90
2019-03-18T18:19:55.704Z,99.90
2019-03-18T18:22:23.935Z,99.90
2019-03-18T18:24:53.037Z,99.90
2019-03-18T18:27:21.254Z,99.90
2019-03-18T18:29:49.480Z,99.90
2019-03-18T18:32:17.776Z,99.90
2019-03-18T18:34:46.014Z,99.90
2019-03-18T18:37:14.340Z,99.90
2019-03-18T18:39:42.667Z,99.90
2019-03-18T18:42:10.903Z,99.90
2019-03-18T18:44:39.162Z,99.90
2019-03-18T18:47:07.393Z,99.90
2019-03-18T18:49:35.602Z,99.90
2019-03-18T18:52:03.848Z,99.90
2019-03-18T18:54:32.083Z,99.90
2019-03-18T18:57:00.361Z,99.90
2019-03-18T18:59:28.586Z,99.90
2019-03-18T19:01:56.810Z,99.90
2019-03-18T19:04:25.065Z,99.90
2019-03-18T19:06:53.296Z,99.90
2019-03-18T19:09:21.503Z,99.90
2019-03-18T19:11:49.767Z,99.90
2019-03-18T19:14:17.988Z,99.90
2019-03-18T19:16:46.203Z,99.90
2019-03-18T19:19:14.456Z,99.90
2019-03-18T19:21:42.693Z,99.90
2019-03-18T19:24:10.921Z,99.90
2019-03-18T19:26:39.186Z,99.90
2019-03-18T19:29:07.493Z,99.90
2019-03-18T19:31:35.769Z,99.90
2019-03-18T19:34:04.030Z,99.90
2019-03-18T19:36:32.255Z,99.90
2019-03-18T19:39:00.472Z,99.90
2019-03-18T19:41:28.715Z,99.90
2019-03-18T19:43:56.953Z,99.90
2019-03-18T19:46:25.170Z,99.90
2019-03-18T19:48:53.418Z,99.90
2019-03-18T19:51:21.642Z,99.90
2019-03-18T19:53:49.909Z,99.90
2019-03-18T19:56:18.127Z,99.90
2019-03-18T19:58:46.359Z,99.90
2019-03-18T20:01:14.610Z,99.90
2019-03-18T20:03:42.835Z,99.90
2019-03-18T20:06:11.068Z,99.90
2019-03-18T20:08:39.327Z,99.90
2019-03-18T20:11:07.546Z,99.90
2019-03-18T20:13:35.807Z,99.90
2019-03-18T20:16:04.053Z,99.90
2019-03-18T20:18:32.268Z,99.90
2019-03-18T20:21:00.537Z,99.90
2019-03-18T20:23:28.748Z,99.90
2019-03-18T20:25:56.972Z,99.90
2019-03-18T20:28:25.219Z,99.90
2019-03-18T20:30:53.462Z,99.90
2019-03-18T20:33:21.705Z,99.90
2019-03-18T20:35:49.935Z,99.90
2019-03-18T20:38:18.185Z,99.90
2019-03-18T20:40:46.442Z,99.90
2019-03-18T20:43:14.694Z,99.90
2019-03-18T20:45:42.934Z,99.90
2019-03-18T20:48:11.176Z,99.90
2019-03-18T20:50:39.391Z,99.90
2019-03-18T20:53:07.624Z,99.90
2019-03-18T20:55:35.871Z,99.90
2019-03-18T20:58:04.125Z,99.90
2019-03-18T21:00:32.340Z,99.90
2019-03-18T21:03:00.574Z,99.90
2019-03-18T21:05:28.832Z,99.90
2019-03-18T21:07:57.067Z,99.90
2019-03-18T21:10:25.293Z,99.90
2019-03-18T21:12:53.574Z,99.90
2019-03-18T21:15:21.891Z,99.90
2019-03-18T21:17:50.143Z,99.90
2019-03-18T21:20:25.493Z,99.90
2019-03-18T21:22:53.851Z,99.90
2019-03-18T21:25:22.076Z,99.90
2019-03-18T21:27:50.319Z,99.90
2019-03-18T21:30:20.665Z,99.90
2019-03-18T21:32:48.940Z,99.90
2019-03-18T21:35:17.200Z,99.90
2019-03-18T21:37:45.469Z,99.90
2019-03-18T21:40:20.246Z,99.90
2019-03-18T21:42:48.550Z,99.90
2019-03-18T21:45:23.152Z,99.90
2019-03-18T21:47:50.557Z,99.90
2019-03-18T21:50:18.826Z,99.90
2019-03-18T21:52:47.141Z,99.90
2019-03-18T21:55:16.217Z,99.90
2019-03-18T21:57:44.443Z,99.90
2019-03-18T22:00:17.857Z,99.90
2019-03-18T22:02:46.092Z,99.90
2019-03-18T22:05:14.470Z,99.90
2019-03-18T22:07:42.726Z,99.90
2019-03-18T22:10:16.244Z,99.90
2019-03-18T22:12:44.497Z,99.90
2019-03-18T22:15:13.694Z,99.90
2019-03-18T22:17:41.938Z,99.90
2019-03-18T22:20:12.453Z,99.90
2019-03-18T22:22:40.680Z,99.90
2019-03-18T22:25:10.250Z,99.90
2019-03-18T22:27:38.522Z,99.90
2019-03-18T22:30:26.182Z,99.90
2019-03-18T22:32:54.452Z,99.90
2019-03-18T22:35:22.669Z,99.90
2019-03-18T22:37:50.916Z,99.90
2019-03-18T22:40:19.157Z,99.90
2019-03-18T22:42:47.418Z,99.90
2019-03-18T22:45:16.372Z,99.90
2019-03-18T22:47:44.620Z,99.90
2019-03-18T22:50:20.452Z,99.90
2019-03-18T22:52:48.694Z,99.90
2019-03-18T22:55:16.945Z,99.90
2019-03-18T22:57:45.163Z,99.90
2019-03-18T23:00:26.763Z,99.90
2019-03-18T23:02:55.003Z,99.90
2019-03-18T23:05:23.239Z,99.90
2019-03-18T23:07:51.491Z,99.90
2019-03-18T23:10:19.734Z,99.90
2019-03-18T23:12:47.979Z,99.90
2019-03-18T23:15:16.227Z,99.90
2019-03-18T23:17:44.451Z,99.90
2019-03-18T23:20:12.759Z,99.90
2019-03-18T23:22:41.004Z,99.90
2019-03-18T23:25:09.254Z,99.90
2019-03-18T23:27:37.492Z,99.90
2019-03-18T23:30:08.534Z,99.90
2019-03-18T23:32:36.752Z,99.90
2019-03-18T23:35:06.432Z,99.90
2019-03-18T23:37:34.698Z,99.90
2019-03-18T23:40:04.089Z,99.90
2019-03-18T23:42:32.332Z,99.90
2019-03-18T23:45:00.568Z,99.90
2019-03-18T23:47:28.797Z,99.90
2019-03-18T23:49:57.030Z,99.90
2019-03-18T23:52:25.299Z,99.90
2019-03-18T23:54:53.520Z,99.90
2019-03-18T23:57:21.738Z,99.90
2019-03-18T23:59:50.003Z,99.90
